Rio Linda, California
Current Conditions -  °F | °C
As of 3:53 PM on Saturday 25 Oct 2014 (Local Time) from KSMF Reporting Station
Scattered Clouds Scattered Clouds  
Wind Chill: 72°   Ceiling: Unl
Heat Index: 72°   Visibility: 10mi
Dew Point: 52°   Wind: 20mph
Humidity: 49%   Direction: 190°S
Pressure: 30.02"   Gusts: NA
Location:  38.68°N, 121.44°W
Report Text: KSMF 252253Z 19017KT 10SM SCT045 22/11 A3002 RMK AO2 PK WND 20026/2200 SLP164 T02220111 $
Loading
Personal Weather Stations






























Interactive Weather Map
Tropical Storm Tracking
New forecast layout! Learn more

10-Day Weather Forecast

Advertisements
Track Severe Weather on mobile